Time;durP1;ratioP1;P1;durP2;ratioP2;P2;SDS_P1;SDS_P2;PMS_P1;PMS_P2;Temp;Humidity;BMP_temperature;BMP_pressure;BME280_temperature;BME280_humidity;BME280_pressure;Samples;Min_cycle;Max_cycle;Signal;HPM_P1;HPM_P2
2023/12/07 00:00:54;;;;;;;16.35;12.82;;;;;;;;;;10323450;28;20079;-68
2023/12/07 00:05:54;;;;;;;14.30;12.80;;;;;;;;;;10329132;28;20091;-69
2023/12/07 00:10:52;;;;;;;13.68;11.73;;;;;;;;;;10333568;28;20525;-69
2023/12/07 00:15:50;;;;;;;15.35;12.55;;;;;;;;;;10327699;28;20068;-68
2023/12/07 00:20:48;;;;;;;16.27;13.60;;;;;;;;;;10326181;28;20528;-69
2023/12/07 00:25:49;;;;;;;13.82;11.82;;;;;;;;;;10328370;28;20075;-68
2023/12/07 00:30:47;;;;;;;17.48;13.32;;;;;;;;;;10328837;28;20060;-67
2023/12/07 00:35:45;;;;;;;15.38;13.40;;;;;;;;;;10327737;28;20075;-67
2023/12/07 00:40:44;;;;;;;14.13;12.32;;;;;;;;;;10325518;28;20084;-67
2023/12/07 00:45:43;;;;;;;15.82;12.50;;;;;;;;;;10309536;28;20072;-68
2023/12/07 00:50:42;;;;;;;15.43;12.02;;;;;;;;;;10327694;28;20079;-69
2023/12/07 00:55:40;;;;;;;13.88;12.40;;;;;;;;;;10332725;28;20064;-68
2023/12/07 01:00:39;;;;;;;13.77;11.43;;;;;;;;;;10336608;28;20079;-68
2023/12/07 01:05:38;;;;;;;30.52;20.77;;;;;;;;;;10336448;28;20063;-69
2023/12/07 01:10:37;;;;;;;17.80;13.77;;;;;;;;;;10338363;28;20072;-68
2023/12/07 01:15:35;;;;;;;16.38;13.00;;;;;;;;;;10335224;28;20094;-68
2023/12/07 01:20:34;;;;;;;14.27;12.52;;;;;;;;;;10334717;28;20074;-68
2023/12/07 01:25:33;;;;;;;13.48;12.07;;;;;;;;;;10333299;28;20068;-67
2023/12/07 01:30:32;;;;;;;14.23;12.07;;;;;;;;;;10334707;28;20509;-68
2023/12/07 01:35:30;;;;;;;15.77;12.25;;;;;;;;;;10334801;28;20068;-68
2023/12/07 01:40:28;;;;;;;12.10;10.27;;;;;;;;;;10335961;28;20080;-68
2023/12/07 01:45:28;;;;;;;12.65;11.40;;;;;;;;;;10315344;28;20080;-68
2023/12/07 01:50:27;;;;;;;15.05;12.07;;;;;;;;;;10330878;28;20083;-67
2023/12/07 01:55:26;;;;;;;14.00;11.32;;;;;;;;;;10334064;28;20079;-68
2023/12/07 02:00:25;;;;;;;12.25;10.95;;;;;;;;;;10332804;28;20532;-68
2023/12/07 02:05:26;;;;;;;16.25;12.77;;;;;;;;;;10333835;28;20064;-68
2023/12/07 02:10:24;;;;;;;13.95;11.77;;;;;;;;;;10333063;28;20063;-68
2023/12/07 02:15:23;;;;;;;13.60;11.50;;;;;;;;;;10333908;28;20453;-68
2023/12/07 02:20:23;;;;;;;11.48;10.27;;;;;;;;;;10332530;28;20068;-68
2023/12/07 02:25:24;;;;;;;12.43;11.02;;;;;;;;;;10333320;28;20071;-68
2023/12/07 02:30:24;;;;;;;12.52;10.77;;;;;;;;;;10332203;28;20078;-69
2023/12/07 02:35:23;;;;;;;12.25;10.88;;;;;;;;;;10331046;28;20080;-70
2023/12/07 02:40:22;;;;;;;12.82;11.30;;;;;;;;;;10331366;28;20098;-69
2023/12/07 02:45:21;;;;;;;11.57;10.38;;;;;;;;;;10332913;28;20068;-67
2023/12/07 02:50:21;;;;;;;11.85;9.65;;;;;;;;;;10333609;28;20446;-68
2023/12/07 02:55:19;;;;;;;12.82;9.23;;;;;;;;;;10333713;28;20071;-68
2023/12/07 03:00:18;;;;;;;19.60;14.35;;;;;;;;;;10331339;28;20072;-68
2023/12/07 03:05:16;;;;;;;11.13;9.57;;;;;;;;;;10329469;28;20114;-68
2023/12/07 03:10:16;;;;;;;10.10;9.05;;;;;;;;;;10320099;28;20086;-68
2023/12/07 03:15:15;;;;;;;11.18;10.07;;;;;;;;;;10331084;28;20071;-70
2023/12/07 03:20:13;;;;;;;10.05;9.05;;;;;;;;;;10329954;28;20075;-68
2023/12/07 03:25:12;;;;;;;10.13;8.70;;;;;;;;;;10332092;28;20528;-68
2023/12/07 03:30:12;;;;;;;9.18;8.18;;;;;;;;;;10330382;28;20063;-68
2023/12/07 03:35:11;;;;;;;9.60;8.65;;;;;;;;;;10330129;28;20071;-68
2023/12/07 03:40:10;;;;;;;10.93;9.52;;;;;;;;;;10330687;28;20110;-68
2023/12/07 03:45:08;;;;;;;9.77;8.77;;;;;;;;;;10324872;28;20533;-68
2023/12/07 03:50:08;;;;;;;9.10;8.20;;;;;;;;;;10328658;28;20064;-68
2023/12/07 03:55:07;;;;;;;8.35;7.55;;;;;;;;;;10326746;28;20091;-68
2023/12/07 04:00:08;;;;;;;9.25;8.30;;;;;;;;;;10328054;28;20072;-68
2023/12/07 04:05:08;;;;;;;9.45;8.55;;;;;;;;;;10309692;28;20075;-69
2023/12/07 04:10:07;;;;;;;8.73;7.85;;;;;;;;;;10308702;28;20044;-69
2023/12/07 04:15:07;;;;;;;10.18;8.90;;;;;;;;;;10328261;28;20048;-67
2023/12/07 04:20:06;;;;;;;10.48;8.63;;;;;;;;;;10330031;28;20071;-67
2023/12/07 04:25:07;;;;;;;11.25;8.15;;;;;;;;;;10326366;28;20476;-67
2023/12/07 04:30:06;;;;;;;9.45;8.07;;;;;;;;;;10323270;28;20076;-68
2023/12/07 04:35:06;;;;;;;10.20;8.43;;;;;;;;;;10327852;28;20083;-68
2023/12/07 04:40:06;;;;;;;11.88;9.95;;;;;;;;;;10325086;28;20552;-68
2023/12/07 04:45:06;;;;;;;9.68;7.82;;;;;;;;;;10327563;28;20072;-68
2023/12/07 04:50:05;;;;;;;8.20;7.38;;;;;;;;;;10327983;28;20072;-66
2023/12/07 04:55:03;;;;;;;9.98;8.40;;;;;;;;;;10327878;28;20072;-67
2023/12/07 05:00:05;;;;;;;10.60;8.70;;;;;;;;;;10325608;28;20068;-65
2023/12/07 05:05:06;;;;;;;7.55;6.85;;;;;;;;;;10327335;28;20084;-67
2023/12/07 05:10:04;;;;;;;9.68;7.45;;;;;;;;;;10329126;28;20072;-67
2023/12/07 05:15:04;;;;;;;8.38;7.47;;;;;;;;;;10311191;28;20103;-68
2023/12/07 05:20:04;;;;;;;7.85;6.80;;;;;;;;;;10326510;28;20101;-68
2023/12/07 05:25:04;;;;;;;8.38;7.35;;;;;;;;;;10297551;28;20147;-68
2023/12/07 05:30:03;;;;;;;8.35;7.43;;;;;;;;;;10311397;28;20060;-68
2023/12/07 05:35:01;;;;;;;8.45;7.55;;;;;;;;;;10297540;28;20128;-68
2023/12/07 05:40:00;;;;;;;7.82;7.03;;;;;;;;;;10300756;28;20147;-68
2023/12/07 05:44:59;;;;;;;9.93;8.43;;;;;;;;;;10310933;28;20142;-67
2023/12/07 05:49:59;;;;;;;7.63;6.82;;;;;;;;;;10331491;28;20505;-68
2023/12/07 05:54:58;;;;;;;7.25;6.28;;;;;;;;;;10328389;28;20076;-69
2023/12/07 05:59:56;;;;;;;7.53;6.18;;;;;;;;;;10322197;28;20087;-68
2023/12/07 06:04:56;;;;;;;8.43;7.63;;;;;;;;;;10304619;28;20131;-67
2023/12/07 06:09:54;;;;;;;9.25;7.10;;;;;;;;;;10304112;28;20139;-68
2023/12/07 06:14:52;;;;;;;10.55;8.63;;;;;;;;;;10321523;28;20075;-68
2023/12/07 06:19:51;;;;;;;9.40;8.40;;;;;;;;;;10330898;28;20056;-67
2023/12/07 06:24:50;;;;;;;8.30;7.35;;;;;;;;;;10341072;28;20076;-67
2023/12/07 06:29:49;;;;;;;10.32;9.27;;;;;;;;;;10317749;28;20119;-68
2023/12/07 06:34:47;;;;;;;15.80;14.27;;;;;;;;;;10334679;28;20071;-69
2023/12/07 06:39:46;;;;;;;10.48;8.95;;;;;;;;;;10288063;28;20142;-67
2023/12/07 06:44:47;;;;;;;10.30;9.20;;;;;;;;;;10293909;28;20047;-68
2023/12/07 06:49:45;;;;;;;11.15;9.50;;;;;;;;;;10301781;28;20044;-66
2023/12/07 06:54:50;;;;;;;9.20;8.23;;;;;;;;;;10329980;28;20124;-66
2023/12/07 06:59:49;;;;;;;10.50;8.98;;;;;;;;;;10329831;28;20060;-66
2023/12/07 07:04:48;;;;;;;9.85;8.50;;;;;;;;;;10323150;28;20064;-66
2023/12/07 07:09:47;;;;;;;9.93;8.90;;;;;;;;;;10332251;28;20067;-67
2023/12/07 07:14:45;;;;;;;10.60;8.48;;;;;;;;;;10315001;28;20509;-67
2023/12/07 07:19:45;;;;;;;9.07;8.13;;;;;;;;;;10336345;28;20075;-67
2023/12/07 07:24:43;;;;;;;11.88;9.55;;;;;;;;;;10327833;28;20139;-68
2023/12/07 07:29:41;;;;;;;9.15;8.35;;;;;;;;;;10327130;28;20064;-67
2023/12/07 07:34:40;;;;;;;9.73;8.38;;;;;;;;;;10335145;28;21046;-68
2023/12/07 07:39:40;;;;;;;10.15;8.65;;;;;;;;;;10332429;28;20094;-68
2023/12/07 07:44:38;;;;;;;9.80;8.13;;;;;;;;;;10327308;28;20072;-68
2023/12/07 07:49:37;;;;;;;12.35;10.63;;;;;;;;;;10328692;28;20059;-68
2023/12/07 07:54:36;;;;;;;10.43;9.18;;;;;;;;;;10328912;28;20079;-67
2023/12/07 07:59:36;;;;;;;10.02;8.80;;;;;;;;;;10324662;28;20074;-66
2023/12/07 08:04:34;;;;;;;9.23;8.20;;;;;;;;;;10299211;28;20130;-67
2023/12/07 08:09:33;;;;;;;9.27;8.38;;;;;;;;;;10282206;28;20134;-67
2023/12/07 08:14:31;;;;;;;13.57;10.40;;;;;;;;;;10301329;28;20557;-66
2023/12/07 08:19:31;;;;;;;10.98;9.73;;;;;;;;;;10297370;28;20123;-66
2023/12/07 08:24:29;;;;;;;11.40;10.02;;;;;;;;;;10303515;28;20139;-67
2023/12/07 08:29:27;;;;;;;13.45;9.93;;;;;;;;;;10323735;28;20074;-68
2023/12/07 08:34:26;;;;;;;9.45;8.18;;;;;;;;;;10286237;28;20513;-68
2023/12/07 08:39:26;;;;;;;12.13;10.77;;;;;;;;;;10281878;28;20898;-67
2023/12/07 08:44:24;;;;;;;10.10;9.10;;;;;;;;;;10316688;28;20135;-68
2023/12/07 08:49:22;;;;;;;12.48;9.50;;;;;;;;;;10310209;28;20467;-67
2023/12/07 08:54:20;;;;;;;9.40;8.50;;;;;;;;;;10302435;28;20076;-67
2023/12/07 08:59:20;;;;;;;10.80;8.60;;;;;;;;;;10309916;28;20131;-66
2023/12/07 09:04:19;;;;;;;9.50;8.55;;;;;;;;;;10300310;28;20549;-67
2023/12/07 09:09:17;;;;;;;8.50;7.68;;;;;;;;;;10310332;28;20147;-67
2023/12/07 09:14:16;;;;;;;8.43;7.63;;;;;;;;;;10326284;28;20084;-67
2023/12/07 09:19:15;;;;;;;9.75;8.75;;;;;;;;;;10336371;28;20089;-66
2023/12/07 09:24:14;;;;;;;9.95;8.88;;;;;;;;;;10328095;28;20064;-65
2023/12/07 09:29:12;;;;;;;7.25;6.55;;;;;;;;;;10323698;28;20127;-67
2023/12/07 09:34:11;;;;;;;7.85;7.05;;;;;;;;;;10331280;28;20531;-66
2023/12/07 09:39:11;;;;;;;10.52;9.07;;;;;;;;;;10327244;28;20138;-67
2023/12/07 09:44:10;;;;;;;10.38;8.45;;;;;;;;;;10326984;28;20063;-66
2023/12/07 09:49:08;;;;;;;10.75;9.65;;;;;;;;;;10332968;28;20529;-67
2023/12/07 09:54:06;;;;;;;11.25;9.35;;;;;;;;;;10335876;28;20481;-68
2023/12/07 09:59:07;;;;;;;9.95;8.73;;;;;;;;;;10334564;28;20456;-67
2023/12/07 10:04:22;;;;;;;10.88;8.88;;;;;;;;;;10335443;28;20083;-67
2023/12/07 10:09:21;;;;;;;8.15;7.28;;;;;;;;;;10335248;28;20083;-67
2023/12/07 10:14:31;;;;;;;9.40;8.30;;;;;;;;;;10336789;28;20100;-67
2023/12/07 10:19:29;;;;;;;20.02;16.35;;;;;;;;;;10332136;28;20060;-66
2023/12/07 10:24:30;;;;;;;15.35;11.88;;;;;;;;;;10335206;28;20476;-66
2023/12/07 10:29:29;;;;;;;8.75;7.18;;;;;;;;;;10335195;28;20532;-66
2023/12/07 10:34:33;;;;;;;13.70;11.57;;;;;;;;;;10333199;28;20083;-67
2023/12/07 10:39:32;;;;;;;11.90;8.95;;;;;;;;;;10331564;28;20087;-66
2023/12/07 10:44:34;;;;;;;12.98;10.55;;;;;;;;;;10330922;28;20086;-67
2023/12/07 10:49:34;;;;;;;12.88;11.50;;;;;;;;;;10332565;28;20075;-66
2023/12/07 10:54:42;;;;;;;15.27;9.43;;;;;;;;;;10328096;28;20068;-66
2023/12/07 10:59:41;;;;;;;19.35;13.13;;;;;;;;;;10334098;28;20318;-66
2023/12/07 11:04:42;;;;;;;12.98;9.88;;;;;;;;;;10332390;28;20071;-66
2023/12/07 11:09:46;;;;;;;16.80;12.95;;;;;;;;;;10330776;28;20067;-67
2023/12/07 11:14:44;;;;;;;16.52;10.07;;;;;;;;;;10333233;28;20469;-66
2023/12/07 11:19:47;;;;;;;13.82;10.75;;;;;;;;;;10318907;28;20535;-66
2023/12/07 11:24:57;;;;;;;15.77;11.00;;;;;;;;;;10289220;28;20392;-66
2023/12/07 11:29:55;;;;;;;14.20;11.50;;;;;;;;;;10294348;28;20127;-67
2023/12/07 11:34:55;;;;;;;12.57;9.20;;;;;;;;;;10307243;28;20488;-66
2023/12/07 11:39:55;;;;;;;18.23;13.00;;;;;;;;;;10298451;28;20132;-65
2023/12/07 11:44:53;;;;;;;12.02;9.48;;;;;;;;;;10295044;28;20140;-65
2023/12/07 11:49:51;;;;;;;22.60;14.43;;;;;;;;;;10280016;28;20131;-66
2023/12/07 11:54:51;;;;;;;17.38;12.50;;;;;;;;;;10289360;28;20158;-65
2023/12/07 11:59:49;;;;;;;9.50;8.60;;;;;;;;;;10292581;28;20149;-65
2023/12/07 12:04:48;;;;;;;12.10;9.60;;;;;;;;;;10282185;28;20144;-65
2023/12/07 12:09:46;;;;;;;12.00;10.00;;;;;;;;;;10283847;28;20424;-65
2023/12/07 12:14:47;;;;;;;14.48;11.07;;;;;;;;;;10308795;28;20592;-65
2023/12/07 12:19:45;;;;;;;17.77;13.40;;;;;;;;;;10284807;28;20056;-65
2023/12/07 12:24:43;;;;;;;36.47;24.13;;;;;;;;;;10297491;28;20135;-67
2023/12/07 12:29:42;;;;;;;31.08;24.38;;;;;;;;;;10322675;28;20074;-66
2023/12/07 12:34:41;;;;;;;17.75;15.95;;;;;;;;;;10324153;28;20075;-67
2023/12/07 12:39:40;;;;;;;14.13;12.63;;;;;;;;;;10281138;28;20135;-65
2023/12/07 12:44:39;;;;;;;16.35;14.18;;;;;;;;;;10279188;28;20123;-66
2023/12/07 12:49:37;;;;;;;14.57;13.15;;;;;;;;;;10275180;28;20061;-65
2023/12/07 12:54:37;;;;;;;12.52;11.10;;;;;;;;;;10276745;28;20420;-65
2023/12/07 12:59:36;;;;;;;11.38;10.18;;;;;;;;;;10287784;28;20143;-66
2023/12/07 13:04:34;;;;;;;11.25;10.05;;;;;;;;;;10323927;28;20900;-66
2023/12/07 13:09:37;;;;;;;26.38;21.00;;;;;;;;;;10326493;28;20052;-66
2023/12/07 13:14:37;;;;;;;13.23;11.52;;;;;;;;;;10317556;28;20123;-66
2023/12/07 13:19:36;;;;;;;13.10;11.70;;;;;;;;;;10302220;28;20167;-66
2023/12/07 13:24:35;;;;;;;22.77;16.58;;;;;;;;;;10311739;28;20083;-64
2023/12/07 13:29:34;;;;;;;19.42;14.63;;;;;;;;;;10325500;28;20063;-64
2023/12/07 13:34:34;;;;;;;16.85;14.18;;;;;;;;;;10317726;28;20480;-63
2023/12/07 13:39:33;;;;;;;19.33;17.30;;;;;;;;;;10315336;28;20123;-63
2023/12/07 13:44:32;;;;;;;10.90;9.80;;;;;;;;;;10305894;28;20120;-64
2023/12/07 13:49:32;;;;;;;11.30;10.20;;;;;;;;;;10306454;28;21113;-62
2023/12/07 13:54:32;;;;;;;10.38;8.98;;;;;;;;;;10277966;28;20047;-63
2023/12/07 13:59:51;;;;;;;15.60;13.00;;;;;;;;;;10284480;28;20119;-63
2023/12/07 14:04:50;;;;;;;20.95;16.60;;;;;;;;;;10301894;28;20706;-63
2023/12/07 14:09:50;;;;;;;24.77;21.13;;;;;;;;;;10330195;28;20064;-64
2023/12/07 14:14:56;;;;;;;42.95;33.63;;;;;;;;;;10324950;28;20079;-64
2023/12/07 14:19:56;;;;;;;17.50;14.25;;;;;;;;;;10333103;28;20064;-63
2023/12/07 14:25:16;;;;;;;16.95;15.15;;;;;;;;;;10322135;28;20714;-63
2023/12/07 14:30:16;;;;;;;18.25;14.52;;;;;;;;;;10295168;28;20162;-64
2023/12/07 14:35:16;;;;;;;18.23;16.20;;;;;;;;;;10285602;28;20143;-63
2023/12/07 14:40:16;;;;;;;16.88;15.07;;;;;;;;;;10285385;28;20056;-63
2023/12/07 14:45:14;;;;;;;16.83;13.10;;;;;;;;;;10302000;28;20108;-64
2023/12/07 14:50:13;;;;;;;19.20;15.07;;;;;;;;;;10321538;28;20124;-64
2023/12/07 14:55:13;;;;;;;20.02;16.80;;;;;;;;;;10326180;28;20060;-64
2023/12/07 15:00:11;;;;;;;22.65;18.55;;;;;;;;;;10331338;28;20064;-64
2023/12/07 15:05:10;;;;;;;19.55;16.20;;;;;;;;;;10329912;28;20080;-63
2023/12/07 15:10:08;;;;;;;24.67;21.80;;;;;;;;;;10330945;28;20087;-64
2023/12/07 15:15:09;;;;;;;26.55;20.55;;;;;;;;;;10324692;28;20065;-63
2023/12/07 15:20:08;;;;;;;17.85;15.98;;;;;;;;;;10325290;28;20064;-64
2023/12/07 15:25:07;;;;;;;23.63;18.48;;;;;;;;;;10265707;28;20134;-63
2023/12/07 15:30:09;;;;;;;27.25;22.20;;;;;;;;;;10278330;28;20062;-63
2023/12/07 15:35:09;;;;;;;38.42;26.58;;;;;;;;;;10288067;28;20138;-64
2023/12/07 15:40:09;;;;;;;36.55;30.92;;;;;;;;;;10312753;28;20139;-63
2023/12/07 15:45:10;;;;;;;24.67;21.05;;;;;;;;;;10317895;28;20074;-63
2023/12/07 15:50:10;;;;;;;20.02;16.48;;;;;;;;;;10328728;28;20091;-65
2023/12/07 15:55:08;;;;;;;23.95;19.35;;;;;;;;;;10322211;28;20060;-63
2023/12/07 16:00:08;;;;;;;25.45;19.85;;;;;;;;;;10321183;28;20076;-64
2023/12/07 16:05:08;;;;;;;42.50;32.08;;;;;;;;;;10315973;28;20079;-65
2023/12/07 16:10:08;;;;;;;65.05;43.55;;;;;;;;;;10324899;28;20067;-64
2023/12/07 16:15:07;;;;;;;54.33;40.17;;;;;;;;;;10328788;28;20072;-64
2023/12/07 16:20:10;;;;;;;29.90;24.45;;;;;;;;;;10328411;28;20084;-64
2023/12/07 16:25:09;;;;;;;34.33;28.00;;;;;;;;;;10334093;28;20063;-64
2023/12/07 16:30:11;;;;;;;31.83;25.20;;;;;;;;;;10329844;28;20076;-64
2023/12/07 16:35:11;;;;;;;29.75;23.02;;;;;;;;;;10328164;28;20098;-64
2023/12/07 16:40:11;;;;;;;33.13;28.48;;;;;;;;;;10328676;28;20095;-65
2023/12/07 16:45:10;;;;;;;25.30;20.95;;;;;;;;;;10335035;28;20071;-64
2023/12/07 16:50:11;;;;;;;29.45;23.90;;;;;;;;;;10328102;28;20087;-64
2023/12/07 16:55:10;;;;;;;25.20;19.83;;;;;;;;;;10321104;28;20048;-64
2023/12/07 17:00:10;;;;;;;37.60;27.60;;;;;;;;;;10327626;28;20543;-64
2023/12/07 17:05:09;;;;;;;42.95;31.33;;;;;;;;;;10326940;28;20076;-65
2023/12/07 17:10:08;;;;;;;57.58;44.60;;;;;;;;;;10329371;28;20076;-65
2023/12/07 17:15:08;;;;;;;34.33;30.45;;;;;;;;;;10327590;28;20462;-65
2023/12/07 17:20:08;;;;;;;35.42;31.88;;;;;;;;;;10327415;28;20071;-64
2023/12/07 17:25:07;;;;;;;52.60;32.85;;;;;;;;;;10323641;28;20064;-64
2023/12/07 17:30:06;;;;;;;45.15;26.17;;;;;;;;;;10310881;28;20072;-63
2023/12/07 17:35:08;;;;;;;48.60;30.02;;;;;;;;;;10328376;28;20090;-63
2023/12/07 17:40:07;;;;;;;87.57;52.15;;;;;;;;;;10333877;28;20084;-63
2023/12/07 17:45:06;;;;;;;95.30;51.80;;;;;;;;;;10339383;28;20539;-63
2023/12/07 17:50:08;;;;;;;34.38;29.63;;;;;;;;;;10335160;28;20087;-63
2023/12/07 17:55:06;;;;;;;45.97;37.67;;;;;;;;;;10331811;28;20084;-63
2023/12/07 18:00:05;;;;;;;45.67;32.20;;;;;;;;;;10335287;28;20072;-63
2023/12/07 18:05:07;;;;;;;34.03;27.67;;;;;;;;;;10334961;28;20080;-64
2023/12/07 18:10:06;;;;;;;24.63;19.90;;;;;;;;;;10333244;28;20087;-63
2023/12/07 18:15:07;;;;;;;27.85;21.58;;;;;;;;;;10335387;28;20083;-62
2023/12/07 18:20:08;;;;;;;30.13;22.70;;;;;;;;;;10331790;28;20079;-63
2023/12/07 18:25:07;;;;;;;34.67;26.08;;;;;;;;;;10332990;28;20446;-63
2023/12/07 18:30:07;;;;;;;26.73;23.55;;;;;;;;;;10333000;28;20087;-65
2023/12/07 18:35:08;;;;;;;27.40;21.80;;;;;;;;;;10334376;28;20532;-64
2023/12/07 18:40:07;;;;;;;40.65;29.60;;;;;;;;;;10263767;28;20077;-64
2023/12/07 18:45:06;;;;;;;74.82;48.28;;;;;;;;;;10248509;28;20076;-63
2023/12/07 18:50:04;;;;;;;105.68;69.07;;;;;;;;;;10254659;28;20073;-63
2023/12/07 18:55:06;;;;;;;37.22;30.55;;;;;;;;;;10252930;28;20167;-62
2023/12/07 19:00:06;;;;;;;46.30;36.42;;;;;;;;;;10261850;28;20079;-62
2023/12/07 19:05:05;;;;;;;45.60;34.35;;;;;;;;;;10251761;28;20564;-61
2023/12/07 19:10:06;;;;;;;35.97;26.00;;;;;;;;;;10248518;28;20100;-61
2023/12/07 19:15:05;;;;;;;46.40;33.55;;;;;;;;;;10248417;28;20494;-61
2023/12/07 19:20:03;;;;;;;33.00;24.17;;;;;;;;;;10252520;28;20084;-62
2023/12/07 19:25:02;;;;;;;32.88;25.67;;;;;;;;;;10250954;28;20072;-63
2023/12/07 19:30:02;;;;;;;31.27;25.48;;;;;;;;;;10250188;28;20080;-62
2023/12/07 19:35:00;;;;;;;25.45;21.05;;;;;;;;;;10249475;28;20084;-62
2023/12/07 19:39:58;;;;;;;21.13;16.77;;;;;;;;;;10303712;28;20083;-63
2023/12/07 19:44:57;;;;;;;18.65;15.80;;;;;;;;;;10326666;28;20076;-63
2023/12/07 19:49:59;;;;;;;21.75;17.33;;;;;;;;;;10318199;28;20477;-62
2023/12/07 19:55:05;;;;;;;24.23;20.05;;;;;;;;;;10327666;28;20071;-62
2023/12/07 20:00:04;;;;;;;24.27;20.48;;;;;;;;;;10326779;28;20516;-62
2023/12/07 20:05:05;;;;;;;23.25;18.33;;;;;;;;;;10329380;28;20090;-62
2023/12/07 20:10:03;;;;;;;22.88;17.90;;;;;;;;;;10328903;28;20496;-61
2023/12/07 20:15:03;;;;;;;23.73;18.52;;;;;;;;;;10328456;28;20467;-62
2023/12/07 20:20:05;;;;;;;24.40;19.77;;;;;;;;;;10314741;28;20629;-62
2023/12/07 20:25:04;;;;;;;20.88;18.25;;;;;;;;;;10282931;28;20505;-63
2023/12/07 20:30:02;;;;;;;27.17;19.45;;;;;;;;;;10284464;28;20553;-63
2023/12/07 20:35:00;;;;;;;24.55;18.17;;;;;;;;;;10283710;28;20135;-63
2023/12/07 20:40:03;;;;;;;24.00;19.15;;;;;;;;;;10282434;28;21201;-63
2023/12/07 20:45:01;;;;;;;24.20;20.55;;;;;;;;;;10291808;28;20124;-63
2023/12/07 20:50:00;;;;;;;21.88;17.70;;;;;;;;;;10321573;28;20091;-64
2023/12/07 20:55:00;;;;;;;30.13;19.85;;;;;;;;;;10319023;28;20079;-64
2023/12/07 20:59:59;;;;;;;31.83;22.83;;;;;;;;;;10307081;28;20174;-63
2023/12/07 21:04:58;;;;;;;49.20;31.85;;;;;;;;;;10284652;28;20128;-64
2023/12/07 21:09:56;;;;;;;50.00;30.45;;;;;;;;;;10284497;28;20048;-65
2023/12/07 21:14:55;;;;;;;26.15;18.95;;;;;;;;;;10333098;28;20098;-64
2023/12/07 21:19:54;;;;;;;26.70;19.40;;;;;;;;;;10321774;28;20119;-64
2023/12/07 21:24:54;;;;;;;26.33;18.88;;;;;;;;;;10316260;28;20120;-65
2023/12/07 21:29:52;;;;;;;29.55;19.65;;;;;;;;;;10312636;28;20139;-63
2023/12/07 21:34:51;;;;;;;25.27;19.17;;;;;;;;;;10338589;28;21157;-63
2023/12/07 21:39:51;;;;;;;32.92;22.20;;;;;;;;;;10307930;28;20514;-64
2023/12/07 21:44:49;;;;;;;31.35;20.02;;;;;;;;;;10319469;28;20067;-63
2023/12/07 21:49:47;;;;;;;44.58;25.40;;;;;;;;;;10331653;28;20082;-63
2023/12/07 21:54:46;;;;;;;30.88;22.90;;;;;;;;;;10335743;28;20071;-65
2023/12/07 21:59:45;;;;;;;22.15;16.98;;;;;;;;;;10333523;28;20064;-64
2023/12/07 22:04:44;;;;;;;22.10;16.08;;;;;;;;;;10333806;28;20059;-63
2023/12/07 22:09:42;;;;;;;32.80;23.83;;;;;;;;;;10301294;28;20140;-64
2023/12/07 22:14:41;;;;;;;27.98;20.35;;;;;;;;;;10314124;28;20131;-63
2023/12/07 22:19:40;;;;;;;33.70;24.65;;;;;;;;;;10285435;28;20493;-64
2023/12/07 22:24:39;;;;;;;22.27;18.20;;;;;;;;;;10325807;28;20083;-65
2023/12/07 22:29:37;;;;;;;33.15;23.48;;;;;;;;;;10294119;28;20048;-64
2023/12/07 22:34:35;;;;;;;42.10;28.08;;;;;;;;;;10283416;28;20049;-63
2023/12/07 22:39:35;;;;;;;21.50;16.98;;;;;;;;;;10283463;28;20056;-62
2023/12/07 22:44:36;;;;;;;19.45;16.33;;;;;;;;;;10283033;28;20044;-63
2023/12/07 22:49:34;;;;;;;23.73;18.85;;;;;;;;;;10282795;28;20052;-63
2023/12/07 22:54:32;;;;;;;21.80;18.83;;;;;;;;;;10283641;28;21438;-64
2023/12/07 22:59:33;;;;;;;22.80;16.98;;;;;;;;;;10285313;28;20429;-63
2023/12/07 23:04:32;;;;;;;19.15;15.15;;;;;;;;;;10283381;28;20664;-63
2023/12/07 23:09:31;;;;;;;19.48;15.73;;;;;;;;;;10265303;28;20044;-63
2023/12/07 23:14:29;;;;;;;18.60;14.80;;;;;;;;;;10283551;28;20591;-62
2023/12/07 23:19:28;;;;;;;19.95;15.90;;;;;;;;;;10285528;28;21139;-63
2023/12/07 23:24:27;;;;;;;19.90;15.40;;;;;;;;;;10286579;28;20131;-63
2023/12/07 23:29:25;;;;;;;21.08;15.45;;;;;;;;;;10282364;28;20041;-63
2023/12/07 23:34:24;;;;;;;17.63;14.65;;;;;;;;;;10283692;28;20520;-64
2023/12/07 23:39:24;;;;;;;17.17;14.38;;;;;;;;;;10281143;28;20494;-63
2023/12/07 23:44:22;;;;;;;24.88;17.08;;;;;;;;;;10283356;28;20045;-64
2023/12/07 23:49:20;;;;;;;20.63;16.13;;;;;;;;;;10281434;28;20051;-64
2023/12/07 23:54:19;;;;;;;20.50;14.82;;;;;;;;;;10282139;28;20138;-64
2023/12/07 23:59:19;;;;;;;20.88;15.23;;;;;;;;;;10281282;28;20160;-63
